Madbury, NH

11:23 PM EST on November 27, 2014 (GMT -0500)
CRN UNH KINGMAN FARM DURHAM 2 N NH US | Change Station
CLOSE
Current Station
Personal Weather Station
Location: Dover, NH
Elevation: 119 ft
Nearby Weather Stations

Elev 119 ft 43.17 °N, 70.93 °W | Updated 1 hour ago

Overcast
Overcast
30.0 °F
Feels Like 30.0 °F
N
3.0
Wind Variable Wind from North
Gusts 7.0 mph

Today
High -- | Low -- °F
--% Chance of Precip.
Yesterday
High -- | Low -- °F
Precip. -- in
6:51 AM 4:11 PM
Waxing Crescent, 36% visible
Pressure 30.01 in
Visibility 10.0 miles
Clouds Overcast 2800 ft
Dew Point 25.0 °F
Humidity 81%
Rainfall -999.00 in
Snow Depth Not available.
UV 0 out of 12
Pollen .10 out of 12
Air Quality Not available.
Flu Activity Not available.
METAR KDAW 280351Z AUTO 01008KT 10SM OVC028 M02/M05 A3000 RMK AO2 SLP160 T10171050

More Conditions Fewer Conditions

Pressure 30.01 in
Visibility 10.0 miles
Clouds Overcast 2800 ft
Dew Point 25.0 °F
Humidity 81%
Rainfall -999.00 in
Snow Depth Not available.
UV 0 out of 12
Pollen .10 out of 12
Air Quality Not available.
Flu Activity Not available.
METAR KDAW 280351Z AUTO 01008KT 10SM OVC028 M02/M05 A3000 RMK AO2 SLP160 T10171050

More Conditions Fewer Conditions

10-Day Weather Forecast

Almanac

Astronomy

Nov. 27, 2014 Rise Set
Actual Time
Civil Twilight
Nautical Twilight
Astronomical Twilight
Moon
Length of Visible Light
Length of Day
Tomorrow will be .
, % of the Moon is Illuminated

Today's Extremes

State Highs State Lows

Community

WunderPhotos

Upload Photos

1,774,180 photos uploaded!

WunderBlogs® & News

Nearby

Air Quality

  Air Quality AQ Index Pollutant
Not available.

Snow Depth

Station Depth Elevation

Earthquake Activity

City Distance Mag. Time & Date
Minimum magnitude displayed is 2.5.

Coastal Water Temperatures

Place Temperature

Nearby Weather Stations